createdAt,value
2018-09-23T00:00:44.526Z,99789.94
2018-09-23T00:03:13.130Z,99785.61
2018-09-23T00:05:41.766Z,99775.83
2018-09-23T00:08:10.326Z,99788.09
2018-09-23T00:10:39.002Z,99785.45
2018-09-23T00:13:07.781Z,99779.05
2018-09-23T00:15:36.414Z,99736.57
2018-09-23T00:18:04.958Z,99783.28
2018-09-23T00:20:33.705Z,99789.65
2018-09-23T00:23:03.778Z,99786.77
2018-09-23T00:25:32.672Z,99792.92
2018-09-23T00:28:01.266Z,99782.33
2018-09-23T00:30:29.826Z,99786.19
2018-09-23T00:32:58.362Z,99782.34
2018-09-23T00:35:26.886Z,99779.86
2018-09-23T00:37:55.684Z,99789.61
2018-09-23T00:40:24.214Z,99788.05
2018-09-23T00:42:52.982Z,99784.47
2018-09-23T00:45:21.466Z,99792.41
2018-09-23T00:47:50.010Z,99779.52
2018-09-23T00:50:18.639Z,99778.94
2018-09-23T00:52:47.162Z,99776.28
2018-09-23T00:55:15.804Z,99780.37
2018-09-23T00:57:44.286Z,99771.57
2018-09-23T01:00:12.918Z,99783.49
2018-09-23T01:02:41.382Z,99769.03
2018-09-23T01:05:10.065Z,99785.52
2018-09-23T01:07:39.893Z,99778.54
2018-09-23T01:10:08.679Z,99775.66
2018-09-23T01:12:37.227Z,99741.97
2018-09-23T01:15:06.170Z,99775.16
2018-09-23T01:17:34.838Z,99769.03
2018-09-23T01:20:03.998Z,99791.90
2018-09-23T01:22:32.674Z,99777.56
2018-09-23T01:25:01.291Z,99786.09
2018-09-23T01:27:29.993Z,99781.41
2018-09-23T01:29:58.646Z,99787.06
2018-09-23T01:32:27.166Z,99783.55
2018-09-23T01:34:55.734Z,99779.34
2018-09-23T01:37:24.286Z,99782.73
2018-09-23T01:39:52.958Z,99777.05
2018-09-23T01:42:21.484Z,99774.40
2018-09-23T01:44:50.658Z,99777.05
2018-09-23T01:47:19.147Z,99790.56
2018-09-23T01:49:47.743Z,99784.18
2018-09-23T01:52:16.263Z,99746.45
2018-09-23T01:54:44.786Z,99780.08
2018-09-23T01:57:13.422Z,99718.52
2018-09-23T01:59:42.030Z,99782.50
2018-09-23T02:02:10.717Z,99784.77
2018-09-23T02:04:39.281Z,99786.09
2018-09-23T02:07:07.822Z,99768.88
2018-09-23T02:09:36.286Z,99774.05
2018-09-23T02:12:04.786Z,99768.39
2018-09-23T02:14:33.647Z,99764.19
2018-09-23T02:17:02.245Z,99772.36
2018-09-23T02:19:30.950Z,99680.72
2018-09-23T02:21:59.418Z,99758.16
2018-09-23T02:24:28.010Z,99764.77
2018-09-23T02:26:56.543Z,99764.65
2018-09-23T02:29:25.001Z,99755.96
2018-09-23T02:31:53.709Z,99761.26
2018-09-23T02:34:22.198Z,99749.81
2018-09-23T02:36:50.839Z,99747.28
2018-09-23T02:39:19.458Z,99750.89
2018-09-23T02:41:48.152Z,99747.89
2018-09-23T02:44:16.739Z,99757.16
2018-09-23T02:46:45.408Z,99757.87
2018-09-23T02:49:13.960Z,99751.64
2018-09-23T02:51:42.471Z,99753.31
2018-09-23T02:54:11.058Z,99748.76
2018-09-23T02:56:39.586Z,99755.84
2018-09-23T02:59:09.042Z,99759.83
2018-09-23T03:01:37.509Z,99748.88
2018-09-23T03:04:06.134Z,99756.02
2018-09-23T03:06:34.582Z,99747.09
2018-09-23T03:09:03.522Z,99751.19
2018-09-23T03:11:32.494Z,99733.80
2018-09-23T03:14:00.965Z,99742.61
2018-09-23T03:16:29.890Z,99750.44
2018-09-23T03:18:58.598Z,99752.34
2018-09-23T03:21:27.254Z,99760.06
2018-09-23T03:23:55.896Z,99742.49
2018-09-23T03:26:24.492Z,99737.20
2018-09-23T03:28:52.978Z,99735.87
2018-09-23T03:31:21.550Z,99737.20
2018-09-23T03:33:50.210Z,99731.05
2018-09-23T03:36:18.708Z,99727.34
2018-09-23T03:38:47.462Z,99720.10
2018-09-23T03:41:16.202Z,99733.46
2018-09-23T03:43:44.808Z,99724.80
2018-09-23T03:46:13.370Z,99730.92
2018-09-23T03:48:42.070Z,99744.33
2018-09-23T03:51:10.667Z,99732.17
2018-09-23T03:53:39.111Z,99731.44
2018-09-23T03:56:07.882Z,99719.52
2018-09-23T03:58:36.354Z,99720.10
2018-09-23T04:01:04.923Z,99719.63
2018-09-23T04:03:33.506Z,99723.95
2018-09-23T04:06:02.004Z,99760.06
2018-09-23T04:08:30.638Z,99721.81
2018-09-23T04:10:59.175Z,99706.03
2018-09-23T04:13:27.931Z,99714.45
2018-09-23T04:15:56.562Z,99708.34
2018-09-23T04:18:26.141Z,99714.58
2018-09-23T04:20:54.628Z,99694.23
2018-09-23T04:23:23.242Z,99699.77
2018-09-23T04:25:51.818Z,99710.36
2018-09-23T04:28:20.400Z,99702.30
2018-09-23T04:30:49.104Z,99732.41
2018-09-23T04:33:17.618Z,99711.69
2018-09-23T04:35:46.254Z,99717.45
2018-09-23T04:38:14.811Z,99741.41
2018-09-23T04:40:43.356Z,99718.19
2018-09-23T04:43:11.983Z,99720.61
2018-09-23T04:45:40.463Z,99716.75
2018-09-23T04:48:09.849Z,99733.03
2018-09-23T04:50:38.350Z,99722.80
2018-09-23T04:53:07.029Z,99719.17
2018-09-23T04:55:35.550Z,99729.53
2018-09-23T04:58:04.116Z,99735.58
2018-09-23T05:00:32.602Z,99730.43
2018-09-23T05:03:01.099Z,99741.37
2018-09-23T05:05:30.518Z,99737.17
2018-09-23T05:07:59.075Z,99749.09
2018-09-23T05:10:27.887Z,99705.69
2018-09-23T05:12:56.496Z,99758.13
2018-09-23T05:15:25.198Z,99746.56
2018-09-23T05:17:53.770Z,99734.64
2018-09-23T05:20:22.234Z,99746.91
2018-09-23T05:22:50.735Z,99749.80
2018-09-23T05:25:19.258Z,99755.09
2018-09-23T05:27:48.022Z,99700.47
2018-09-23T05:30:16.583Z,99764.76
2018-09-23T05:32:45.437Z,99762.11
2018-09-23T05:35:14.009Z,99777.16
2018-09-23T05:37:42.591Z,99765.97
2018-09-23T05:40:11.214Z,99741.50
2018-09-23T05:42:39.812Z,99765.11
2018-09-23T05:45:09.355Z,99760.63
2018-09-23T05:47:37.813Z,99764.72
2018-09-23T05:50:06.970Z,99758.95
2018-09-23T05:52:35.414Z,99760.40
2018-09-23T05:55:04.354Z,99756.58
2018-09-23T05:57:32.947Z,99759.23
2018-09-23T06:00:01.587Z,99767.06
2018-09-23T06:02:30.216Z,99771.27
2018-09-23T06:04:58.805Z,99763.09
2018-09-23T06:07:27.538Z,99763.09
2018-09-23T06:09:56.077Z,99766.44
2018-09-23T06:12:24.929Z,99769.83
2018-09-23T06:14:53.430Z,99776.22
2018-09-23T06:17:21.946Z,99779.58
2018-09-23T06:19:50.638Z,99789.36
2018-09-23T06:22:19.122Z,99786.83
2018-09-23T06:24:47.758Z,99724.94
2018-09-23T06:27:16.306Z,99792.02
2018-09-23T06:29:44.999Z,99789.87
2018-09-23T06:32:13.621Z,99781.91
2018-09-23T06:34:42.237Z,99796.38
2018-09-23T06:37:10.830Z,99784.21
2018-09-23T06:39:39.290Z,99788.19
2018-09-23T06:42:08.067Z,99786.98
2018-09-23T06:44:36.737Z,99779.97
2018-09-23T06:47:05.518Z,99798.05
2018-09-23T06:49:34.089Z,99788.89
2018-09-23T06:52:02.763Z,99796.49
2018-09-23T06:54:31.287Z,99801.20
2018-09-23T06:57:00.060Z,99805.27
2018-09-23T06:59:28.546Z,99822.27
2018-09-23T07:01:56.985Z,99825.65
2018-09-23T07:04:25.661Z,99817.08
2018-09-23T07:06:54.118Z,99820.11
2018-09-23T07:09:22.777Z,99822.65
2018-09-23T07:11:51.371Z,99813.26
2018-09-23T07:14:20.003Z,99818.44
2018-09-23T07:16:48.483Z,99828.14
2018-09-23T07:19:17.066Z,99836.18
2018-09-23T07:21:45.733Z,99828.23
2018-09-23T07:24:14.442Z,99832.20
2018-09-23T07:26:43.064Z,99823.89
2018-09-23T07:29:11.550Z,99830.67
2018-09-23T07:31:40.078Z,99832.85
2018-09-23T07:34:08.808Z,99837.80
2018-09-23T07:36:37.322Z,99840.55
2018-09-23T07:39:07.326Z,99842.73
2018-09-23T07:41:36.530Z,99844.55
2018-09-23T07:44:05.334Z,99800.97
2018-09-23T07:46:33.812Z,99781.67
2018-09-23T07:49:02.660Z,99842.74
2018-09-23T07:51:31.125Z,99842.16
2018-09-23T07:53:59.798Z,99844.55
2018-09-23T07:56:28.420Z,99851.92
2018-09-23T07:58:56.892Z,99852.39
2018-09-23T08:01:25.537Z,99853.48
2018-09-23T08:03:54.151Z,99855.05
2018-09-23T08:06:22.723Z,99863.50
2018-09-23T08:08:51.198Z,99865.68
2018-09-23T08:11:19.848Z,99877.97
2018-09-23T08:13:48.532Z,99874.34
2018-09-23T08:16:16.902Z,99875.91
2018-09-23T08:18:45.734Z,99870.84
2018-09-23T08:21:14.420Z,99869.77
2018-09-23T08:23:43.007Z,99873.75
2018-09-23T08:26:11.536Z,99870.03
2018-09-23T08:28:40.111Z,99873.63
2018-09-23T08:31:08.702Z,99874.38
2018-09-23T08:33:37.334Z,99877.16
2018-09-23T08:36:06.037Z,99869.05
2018-09-23T08:38:34.518Z,99881.98
2018-09-23T08:41:03.252Z,99878.70
2018-09-23T08:43:31.742Z,99874.46
2018-09-23T08:46:00.250Z,99871.23
2018-09-23T08:48:28.828Z,99885.84
2018-09-23T08:50:57.486Z,99899.94
2018-09-23T08:53:26.189Z,99876.52
2018-09-23T08:55:54.817Z,99880.63
2018-09-23T08:58:23.722Z,99893.91
2018-09-23T09:00:52.190Z,99896.80
2018-09-23T09:03:20.929Z,99902.49
2018-09-23T09:05:49.454Z,99888.84
2018-09-23T09:08:18.051Z,99903.09
2018-09-23T09:10:46.714Z,99900.44
2018-09-23T09:13:15.193Z,99895.85
2018-09-23T09:15:43.898Z,99910.80
2018-09-23T09:18:12.450Z,99905.02
2018-09-23T09:20:41.379Z,99908.63
2018-09-23T09:23:10.176Z,99910.09
2018-09-23T09:25:38.782Z,99919.61
2018-09-23T09:28:07.410Z,99906.45
2018-09-23T09:30:35.878Z,99912.75
2018-09-23T09:33:04.622Z,99908.87
2018-09-23T09:35:33.112Z,99915.86
2018-09-23T09:38:01.955Z,99917.19
2018-09-23T09:40:30.503Z,99916.10
2018-09-23T09:42:59.065Z,99905.46
2018-09-23T09:45:27.900Z,99927.16
2018-09-23T09:47:56.722Z,99912.44
2018-09-23T09:50:25.987Z,99912.44
2018-09-23T09:52:54.442Z,99904.31
2018-09-23T09:55:23.148Z,99904.79
2018-09-23T09:57:51.627Z,99909.20
2018-09-23T10:00:25.438Z,99907.27
2018-09-23T10:02:54.038Z,99907.80
2018-09-23T10:05:22.602Z,99910.94
2018-09-23T10:07:51.478Z,99918.34
2018-09-23T10:10:20.500Z,99907.06
2018-09-23T10:12:49.069Z,99914.95
2018-09-23T10:15:17.680Z,99921.89
2018-09-23T10:17:46.474Z,99925.74
2018-09-23T10:20:15.223Z,99919.70
2018-09-23T10:22:43.893Z,99919.73
2018-09-23T10:25:12.326Z,99923.79
2018-09-23T10:27:40.985Z,99926.34
2018-09-23T10:30:10.347Z,99920.54
2018-09-23T10:32:39.294Z,99919.69
2018-09-23T10:35:08.151Z,99923.55
2018-09-23T10:37:37.398Z,99919.52
2018-09-23T10:40:06.871Z,99930.44
2018-09-23T10:42:35.698Z,99920.12
2018-09-23T10:45:04.521Z,99921.48
2018-09-23T10:47:33.103Z,99937.72
2018-09-23T10:50:01.615Z,99935.86
2018-09-23T10:52:30.177Z,99935.63
2018-09-23T10:54:58.860Z,99932.14
2018-09-23T10:57:27.452Z,99937.34
2018-09-23T10:59:56.957Z,99936.00
2018-09-23T11:02:25.410Z,99934.34
2018-09-23T11:04:54.037Z,99942.91
2018-09-23T11:07:22.656Z,99932.27
2018-09-23T11:09:51.491Z,99927.28
2018-09-23T11:12:19.974Z,99930.42
2018-09-23T11:14:48.561Z,99934.93
2018-09-23T11:17:17.587Z,99932.47
2018-09-23T11:19:46.070Z,99933.08
2018-09-23T11:22:15.510Z,99941.63
2018-09-23T11:24:44.182Z,99940.83
2018-09-23T11:27:12.884Z,99937.84
2018-09-23T11:29:41.602Z,99929.72
2018-09-23T11:32:10.074Z,99932.37
2018-09-23T11:34:38.663Z,99934.89
2018-09-23T11:37:07.300Z,99941.77
2018-09-23T11:39:36.254Z,99933.28
2018-09-23T11:42:04.816Z,99929.92
2018-09-23T11:44:33.889Z,99938.05
2018-09-23T11:47:02.374Z,99931.79
2018-09-23T11:49:30.926Z,99922.97
2018-09-23T11:51:59.470Z,99925.74
2018-09-23T11:54:28.047Z,99927.06
2018-09-23T11:56:56.698Z,99921.94
2018-09-23T11:59:25.250Z,99926.66
2018-09-23T12:01:55.623Z,99913.88
2018-09-23T12:04:24.154Z,99920.89
2018-09-23T12:06:52.919Z,99928.14
2018-09-23T12:09:21.387Z,99919.69
2018-09-23T12:11:49.900Z,99924.31
2018-09-23T12:14:18.596Z,99888.59
2018-09-23T12:16:47.075Z,99912.09
2018-09-23T12:19:15.782Z,99908.85
2018-09-23T12:21:44.309Z,99913.56
2018-09-23T12:24:13.112Z,99927.18
2018-09-23T12:26:41.578Z,99914.88
2018-09-23T12:29:10.576Z,99901.25
2018-09-23T12:31:39.234Z,99911.38
2018-09-23T12:34:07.734Z,99902.08
2018-09-23T12:36:36.305Z,99901.13
2018-09-23T12:39:07.358Z,99897.96
2018-09-23T12:41:35.850Z,99904.02
2018-09-23T12:44:04.371Z,99900.90
2018-09-23T12:46:33.422Z,99902.83
2018-09-23T12:49:02.180Z,99898.12
2018-09-23T12:51:30.938Z,99894.87
2018-09-23T12:53:59.586Z,99895.34
2018-09-23T12:56:28.098Z,99896.67
2018-09-23T12:58:57.310Z,99910.30
2018-09-23T13:01:25.814Z,99898.45
2018-09-23T13:03:54.307Z,99899.67
2018-09-23T13:06:22.978Z,99901.20
2018-09-23T13:08:51.773Z,99895.89
2018-09-23T13:11:20.270Z,99905.97
2018-09-23T13:13:49.766Z,99902.33
2018-09-23T13:16:18.227Z,99908.41
2018-09-23T13:18:46.853Z,99904.03
2018-09-23T13:21:15.450Z,99904.77
2018-09-23T13:23:44.013Z,99895.83
2018-09-23T13:26:12.767Z,99847.08
2018-09-23T13:28:41.280Z,99886.05
2018-09-23T13:31:10.184Z,99845.73
2018-09-23T13:33:38.854Z,99880.11
2018-09-23T13:36:07.519Z,99879.13
2018-09-23T13:38:35.991Z,99878.62
2018-09-23T13:41:04.482Z,99889.77
2018-09-23T13:43:33.270Z,99889.15
2018-09-23T13:46:01.839Z,99891.66
2018-09-23T13:48:30.894Z,99900.51
2018-09-23T13:50:59.470Z,99897.47
2018-09-23T13:53:28.620Z,99896.88
2018-09-23T13:55:57.196Z,99897.60
2018-09-23T13:58:25.870Z,99899.63
2018-09-23T14:00:54.359Z,99897.48
2018-09-23T14:03:22.839Z,99898.59
2018-09-23T14:05:51.817Z,99906.89
2018-09-23T14:08:20.308Z,99910.78
2018-09-23T14:10:50.568Z,99914.14
2018-09-23T14:13:19.058Z,99910.75
2018-09-23T14:15:47.735Z,99904.13
2018-09-23T14:18:16.286Z,99901.72
2018-09-23T14:20:44.794Z,99901.72
2018-09-23T14:23:13.262Z,99905.71
2018-09-23T14:25:41.786Z,99904.25
2018-09-23T14:28:10.453Z,99800.89
2018-09-23T14:30:39.245Z,99901.63
2018-09-23T14:33:08.076Z,99909.22
2018-09-23T14:35:36.773Z,99907.89
2018-09-23T14:38:05.372Z,99914.91
2018-09-23T14:40:33.898Z,99906.55
2018-09-23T14:43:02.419Z,99902.82
2018-09-23T14:45:31.109Z,99890.87
2018-09-23T14:47:59.622Z,99900.86
2018-09-23T14:50:28.422Z,99842.75
2018-09-23T14:52:57.055Z,99911.77
2018-09-23T14:55:25.907Z,99907.17
2018-09-23T14:57:54.428Z,99911.52
2018-09-23T15:00:22.949Z,99908.27
2018-09-23T15:02:51.590Z,99899.47
2018-09-23T15:05:20.279Z,99911.65
2018-09-23T15:07:49.131Z,99908.14
2018-09-23T15:10:17.595Z,99906.58
2018-09-23T15:12:46.229Z,99899.21
2018-09-23T15:15:14.817Z,99898.48
2018-09-23T15:17:43.430Z,99894.98
2018-09-23T15:20:12.978Z,99881.36
2018-09-23T15:22:41.522Z,99884.73
2018-09-23T15:25:10.154Z,99889.92
2018-09-23T15:27:38.757Z,99874.38
2018-09-23T15:30:07.542Z,99843.72
2018-09-23T15:32:36.040Z,99883.77
2018-09-23T15:35:04.714Z,99878.23
2018-09-23T15:37:33.229Z,99885.70
2018-09-23T15:40:01.831Z,99880.77
2018-09-23T15:42:30.627Z,99837.45
2018-09-23T15:44:59.244Z,99884.00
2018-09-23T15:47:27.966Z,99875.34
2018-09-23T15:49:56.506Z,99873.28
2018-09-23T15:52:25.332Z,99868.68
2018-09-23T15:54:53.877Z,99870.25
2018-09-23T15:57:22.534Z,99878.20
2018-09-23T15:59:51.014Z,99869.39
2018-09-23T16:02:19.523Z,99873.61
2018-09-23T16:04:48.420Z,99871.94
2018-09-23T16:07:16.902Z,99874.82
2018-09-23T16:09:45.805Z,99879.86
2018-09-23T16:12:14.414Z,99875.77
2018-09-23T16:14:43.060Z,99874.44
2018-09-23T16:17:11.532Z,99874.08
2018-09-23T16:19:40.055Z,99866.17
2018-09-23T16:22:08.662Z,99870.61
2018-09-23T16:24:37.118Z,99868.94
2018-09-23T16:27:05.917Z,99822.09
2018-09-23T16:29:34.462Z,99866.86
2018-09-23T16:32:03.286Z,99865.61
2018-09-23T16:34:31.738Z,99869.10
2018-09-23T16:37:00.406Z,99869.78
2018-09-23T16:39:29.254Z,99859.11
2018-09-23T16:41:57.882Z,99864.20
2018-09-23T16:44:26.871Z,99869.02
2018-09-23T16:46:55.340Z,99867.98
2018-09-23T16:49:24.375Z,99865.72
2018-09-23T16:51:52.847Z,99864.45
2018-09-23T16:54:21.433Z,99860.93
2018-09-23T16:56:50.046Z,99872.25
2018-09-23T16:59:18.507Z,99871.37
2018-09-23T17:01:47.406Z,99877.85
2018-09-23T17:04:15.990Z,99874.21
2018-09-23T17:06:44.974Z,99875.23
2018-09-23T17:09:13.438Z,99873.48
2018-09-23T17:11:42.204Z,99878.00
2018-09-23T17:14:10.714Z,99887.13
2018-09-23T17:16:39.308Z,99871.33
2018-09-23T17:19:08.108Z,99883.09
2018-09-23T17:21:36.650Z,99878.34
2018-09-23T17:24:05.682Z,99878.67
2018-09-23T17:26:34.382Z,99882.70
2018-09-23T17:29:03.146Z,99878.95
2018-09-23T17:31:31.879Z,99881.66
2018-09-23T17:34:00.460Z,99881.11
2018-09-23T17:36:28.957Z,99890.64
2018-09-23T17:38:57.442Z,99888.27
2018-09-23T17:41:26.493Z,99895.85
2018-09-23T17:43:55.022Z,99895.70
2018-09-23T17:46:24.960Z,99898.34
2018-09-23T17:48:53.511Z,99849.02
2018-09-23T17:51:22.417Z,99897.59
2018-09-23T17:53:50.902Z,99903.28
2018-09-23T17:56:19.597Z,99899.93
2018-09-23T17:58:48.352Z,99903.58
2018-09-23T18:01:16.935Z,99894.55
2018-09-23T18:03:45.678Z,99900.23
2018-09-23T18:06:14.203Z,99904.52
2018-09-23T18:08:42.906Z,99910.89
2018-09-23T18:11:11.639Z,99908.81
2018-09-23T18:13:40.278Z,99916.94
2018-09-23T18:16:09.097Z,99924.69
2018-09-23T18:18:37.655Z,99922.90
2018-09-23T18:21:06.995Z,99877.16
2018-09-23T18:23:35.512Z,99924.89
2018-09-23T18:26:04.527Z,99939.58
2018-09-23T18:28:33.095Z,99944.05
2018-09-23T18:31:01.990Z,99948.85
2018-09-23T18:33:30.615Z,99945.24
2018-09-23T18:35:59.196Z,99950.16
2018-09-23T18:38:27.728Z,99944.67
2018-09-23T18:40:57.019Z,99951.62
2018-09-23T18:43:25.530Z,99953.70
2018-09-23T18:45:54.058Z,99960.75
2018-09-23T18:48:22.750Z,99961.94
2018-09-23T18:50:51.359Z,99959.66
2018-09-23T18:53:24.204Z,99959.84
2018-09-23T18:55:53.790Z,99965.02
2018-09-23T18:58:22.461Z,99962.27
2018-09-23T19:00:51.138Z,99972.22
2018-09-23T19:03:20.035Z,99969.20
2018-09-23T19:05:48.503Z,99972.27
2018-09-23T19:08:17.178Z,99973.62
2018-09-23T19:10:45.670Z,99969.64
2018-09-23T19:13:19.519Z,99974.39
2018-09-23T19:15:52.458Z,99976.71
2018-09-23T19:18:21.034Z,99972.16
2018-09-23T19:20:49.785Z,99975.53
2018-09-23T19:23:18.315Z,99978.84
2018-09-23T19:25:46.980Z,99985.22
2018-09-23T19:28:15.666Z,99982.92
2018-09-23T19:30:44.165Z,99980.22
2018-09-23T19:33:12.815Z,99977.02
2018-09-23T19:35:41.414Z,99973.69
2018-09-23T19:38:09.934Z,99974.34
2018-09-23T19:40:38.568Z,99973.19
2018-09-23T19:43:07.040Z,99979.44
2018-09-23T19:45:35.702Z,99974.34
2018-09-23T19:48:04.300Z,99984.78
2018-09-23T19:50:33.212Z,99975.20
2018-09-23T19:53:01.663Z,99998.34
2018-09-23T19:55:30.239Z,100043.80
2018-09-23T19:57:58.729Z,100043.14
2018-09-23T20:00:27.211Z,100045.40
2018-09-23T20:02:55.762Z,100035.39
2018-09-23T20:05:24.306Z,100051.69
2018-09-23T20:07:52.970Z,100034.22
2018-09-23T20:10:21.761Z,100038.87
2018-09-23T20:12:50.593Z,100032.63
2018-09-23T20:15:19.457Z,100033.75
2018-09-23T20:17:48.661Z,100024.59
2018-09-23T20:20:17.141Z,100032.01
2018-09-23T20:22:45.591Z,100031.03
2018-09-23T20:25:14.363Z,100032.41
2018-09-23T20:27:42.822Z,100033.98
2018-09-23T20:30:11.758Z,100047.94
2018-09-23T20:32:40.237Z,100048.97
2018-09-23T20:35:09.046Z,100050.82
2018-09-23T20:37:38.574Z,100067.39
2018-09-23T20:40:07.431Z,100086.77
2018-09-23T20:42:36.020Z,100113.84
2018-09-23T20:45:04.860Z,100117.41
2018-09-23T20:47:34.515Z,100109.10
2018-09-23T20:50:03.098Z,100123.34
2018-09-23T20:52:31.988Z,100143.08
2018-09-23T20:55:00.619Z,100161.12
2018-09-23T20:57:29.406Z,100169.19
2018-09-23T20:59:58.978Z,100182.02
2018-09-23T21:02:27.859Z,100189.66
2018-09-23T21:04:56.342Z,100181.64
2018-09-23T21:07:25.058Z,100176.91
2018-09-23T21:09:53.773Z,100155.30
2018-09-23T21:12:22.240Z,100153.73
2018-09-23T21:14:51.082Z,100118.21
2018-09-23T21:17:19.634Z,100068.13
2018-09-23T21:19:48.335Z,100072.95
2018-09-23T21:22:16.931Z,100074.53
2018-09-23T21:24:45.579Z,100078.23
2018-09-23T21:27:14.202Z,100033.44
2018-09-23T21:29:42.678Z,100087.89
2018-09-23T21:32:11.566Z,100090.42
2018-09-23T21:34:40.258Z,100104.25
2018-09-23T21:37:09.119Z,100107.55
2018-09-23T21:39:37.632Z,100116.92
2018-09-23T21:42:06.302Z,100117.27
2018-09-23T21:44:34.794Z,100130.49
2018-09-23T21:47:03.354Z,100127.66
2018-09-23T21:49:32.076Z,100127.67
2018-09-23T21:52:00.650Z,100147.71
2018-09-23T21:54:29.529Z,100149.78
2018-09-23T21:56:58.113Z,100156.36
2018-09-23T21:59:26.851Z,100162.94
2018-09-23T22:01:55.458Z,100164.62
2018-09-23T22:04:24.054Z,100175.02
2018-09-23T22:06:53.165Z,100177.56
2018-09-23T22:09:21.807Z,100184.58
2018-09-23T22:11:50.434Z,100076.05
2018-09-23T22:14:18.938Z,100185.67
2018-09-23T22:16:47.826Z,100199.65
2018-09-23T22:19:16.383Z,100195.61
2018-09-23T22:21:44.992Z,100198.11
2018-09-23T22:24:13.650Z,100204.88
2018-09-23T22:26:42.150Z,100206.02
2018-09-23T22:29:10.811Z,100214.03
2018-09-23T22:31:39.334Z,100220.36
2018-09-23T22:34:08.290Z,100222.33
2018-09-23T22:36:36.734Z,100233.09
2018-09-23T22:39:07.164Z,100235.98
2018-09-23T22:41:35.638Z,100238.30
2018-09-23T22:44:04.222Z,100244.13
2018-09-23T22:46:32.805Z,100260.55
2018-09-23T22:49:01.334Z,100269.06
2018-09-23T22:51:30.111Z,100274.44
2018-09-23T22:53:58.677Z,100274.57
2018-09-23T22:56:27.537Z,100273.01
2018-09-23T22:58:56.167Z,100280.20
2018-09-23T23:01:24.902Z,100270.64
2018-09-23T23:03:53.422Z,100282.31
2018-09-23T23:06:22.103Z,100282.02
2018-09-23T23:08:50.610Z,100299.20
2018-09-23T23:11:19.288Z,100300.25
2018-09-23T23:13:48.073Z,100308.24
2018-09-23T23:16:16.595Z,100311.11
2018-09-23T23:18:45.446Z,100314.33
2018-09-23T23:21:14.130Z,100311.83
2018-09-23T23:23:42.764Z,100320.23
2018-09-23T23:26:11.216Z,100312.86
2018-09-23T23:28:39.667Z,100327.66
2018-09-23T23:31:08.586Z,100330.78
2018-09-23T23:33:37.146Z,100332.75
2018-09-23T23:36:06.042Z,100333.26
2018-09-23T23:38:34.548Z,100341.12
2018-09-23T23:41:03.117Z,100347.16
2018-09-23T23:43:31.719Z,100343.62
2018-09-23T23:46:00.282Z,100357.97
2018-09-23T23:48:28.997Z,100366.31
2018-09-23T23:50:57.462Z,100372.77
2018-09-23T23:53:26.391Z,100263.59
2018-09-23T23:55:54.846Z,100371.41
2018-09-23T23:58:23.640Z,100387.44
